Time;durP1;ratioP1;P1;durP2;ratioP2;P2;SDS_P1;SDS_P2;PMS_P1;PMS_P2;Temp;Humidity;BMP_temperature;BMP_pressure;BME280_temperature;BME280_humidity;BME280_pressure;Samples;Min_cycle;Max_cycle;Signal;HPM_P1;HPM_P2
2022/01/20 00:00:13;;;;;;;34.50;14.70;;;;;;;-2.03;51.82;101131.15;117291;1185;24161;-52
2022/01/20 00:02:42;;;;;;;21.10;10.20;;;;;;;-2.04;51.70;101131.05;117042;1182;23032;-60
2022/01/20 00:05:30;;;;;;;19.30;8.70;;;;;;;-2.05;51.78;101126.89;117368;1185;23554;-51
2022/01/20 00:08:13;;;;;;;19.20;9.20;;;;;;;-2.05;51.67;101122.05;117263;1184;21858;-51
2022/01/20 00:27:26;;;;;;;20.80;9.80;;;;;;;-2.07;51.91;101112.16;117252;1183;23478;-51
2022/01/20 00:37:15;;;;;;;16.00;8.10;;;;;;;-2.13;51.90;101093.11;117096;1180;22924;-61
2022/01/20 00:38:21;;;;;;;22.70;10.20;;;;;;;-2.12;52.06;101090.58;117311;1185;23454;-60
2022/01/20 00:40:49;;;;;;;32.50;15.00;;;;;;;-2.12;52.02;101084.77;117320;1185;23475;-59
2022/01/20 00:43:17;;;;;;;25.70;12.30;;;;;;;-2.10;51.98;101080.23;117353;1182;22649;-60
2022/01/20 00:45:47;;;;;;;20.50;9.70;;;;;;;-2.13;52.01;101077.68;117046;1183;21980;-51
2022/01/20 00:48:19;;;;;;;17.10;8.90;;;;;;;-2.16;51.94;101071.68;117288;1184;22877;-51
2022/01/20 00:50:47;;;;;;;16.10;8.50;;;;;;;-2.19;51.99;101068.77;117289;1181;23577;-51
2022/01/20 00:53:16;;;;;;;18.40;8.40;;;;;;;-2.21;51.88;101061.27;117362;1185;24155;-51
2022/01/20 00:55:44;;;;;;;19.40;9.10;;;;;;;-2.22;52.07;101052.93;117084;1184;23509;-60
2022/01/20 00:58:14;;;;;;;17.00;8.80;;;;;;;-2.22;52.00;101049.16;117323;1185;21967;-60
2022/01/20 01:00:42;;;;;;;17.10;9.70;;;;;;;-2.20;52.02;101043.73;117325;1182;21854;-60
2022/01/20 01:03:10;;;;;;;20.50;9.30;;;;;;;-2.20;52.17;101040.67;117284;1182;23550;-59
2022/01/20 01:05:51;;;;;;;14.70;8.30;;;;;;;-2.17;52.25;101037.73;117301;1185;22972;-60
2022/01/20 01:08:20;;;;;;;15.10;7.80;;;;;;;-2.13;52.19;101037.25;117332;1185;21854;-51
2022/01/20 01:10:50;;;;;;;23.70;10.40;;;;;;;-2.08;52.39;101033.17;117406;1185;24156;-60
2022/01/20 01:13:33;;;;;;;16.90;9.30;;;;;;;-2.06;52.31;101025.19;117053;1184;24162;-51
2022/01/20 01:16:02;;;;;;;17.50;8.50;;;;;;;-2.04;52.33;101018.60;117191;1186;22929;-51
2022/01/20 01:23:55;;;;;;;18.00;8.70;;;;;;;-1.97;52.25;101003.95;117326;1184;23471;-60
2022/01/20 01:26:27;;;;;;;20.90;10.50;;;;;;;-1.97;52.20;101004.47;117307;1182;21839;-60
2022/01/20 01:28:57;;;;;;;15.80;8.70;;;;;;;-1.97;52.32;100998.98;117151;1182;21922;-52
2022/01/20 01:31:34;;;;;;;17.50;8.40;;;;;;;-1.96;52.30;100994.89;117281;1185;23076;-51
2022/01/20 01:34:09;;;;;;;19.70;9.00;;;;;;;-1.96;52.46;100991.65;117268;1176;21870;-52
2022/01/20 01:37:03;;;;;;;16.90;8.90;;;;;;;-1.95;52.46;100982.91;117119;1186;21858;-52
2022/01/20 01:39:32;;;;;;;17.10;8.60;;;;;;;-1.93;52.38;100981.43;117137;1184;21941;-51
2022/01/20 01:42:00;;;;;;;14.10;7.50;;;;;;;-1.92;52.46;100978.23;117348;1185;21866;-60
2022/01/20 01:44:31;;;;;;;19.00;8.80;;;;;;;-1.91;52.28;100975.02;117261;1182;22068;-61
2022/01/20 01:46:59;;;;;;;16.00;9.70;;;;;;;-1.91;52.51;100974.66;117304;1178;21869;-54
2022/01/20 01:49:27;;;;;;;16.10;8.30;;;;;;;-1.95;52.41;100972.21;117199;1178;21823;-52
2022/01/20 01:51:56;;;;;;;15.60;8.10;;;;;;;-1.99;52.40;100973.27;117138;1186;21859;-60
2022/01/20 01:54:24;;;;;;;17.20;9.00;;;;;;;-1.99;52.54;100972.04;117110;1184;21864;-52
2022/01/20 01:56:53;;;;;;;15.20;8.50;;;;;;;-2.01;52.39;100966.44;117136;1186;21870;-60
2022/01/20 01:59:21;;;;;;;16.90;8.60;;;;;;;-2.04;52.52;100964.77;117225;1186;23454;-60
2022/01/20 02:01:49;;;;;;;20.40;9.50;;;;;;;-2.08;52.36;100965.23;117191;1184;24145;-60
2022/01/20 02:04:20;;;;;;;16.30;9.00;;;;;;;-2.12;52.23;100958.69;117204;1184;21852;-60
2022/01/20 02:20:14;;;;;;;14.20;8.60;;;;;;;-2.32;52.32;100919.22;117028;1184;21864;-60
2022/01/20 02:22:42;;;;;;;13.30;7.60;;;;;;;-2.33;52.37;100916.39;117181;1182;22625;-60
2022/01/20 02:25:37;;;;;;;15.00;8.60;;;;;;;-2.35;52.35;100918.02;117256;1184;23465;-59
2022/01/20 02:28:07;;;;;;;16.80;9.00;;;;;;;-2.39;52.44;100911.86;117220;1186;23471;-54
2022/01/20 02:30:35;;;;;;;;;;;;;;;-2.41;52.48;100906.77;117069;1187;21828;-50
2022/01/20 02:33:08;;;;;;;17.30;8.10;;;;;;;-2.42;52.45;100904.83;117246;1185;23461;-50
2022/01/20 02:35:40;;;;;;;13.70;7.80;;;;;;;-2.43;52.46;100905.13;117272;1185;23594;-50
2022/01/20 02:38:13;;;;;;;19.10;8.20;;;;;;;-2.42;52.36;100901.56;117269;1186;21863;-60
2022/01/20 02:46:04;;;;;;;15.60;7.80;;;;;;;-2.52;52.38;100888.00;117116;1182;23913;-50
2022/01/20 02:48:33;;;;;;;13.80;8.10;;;;;;;-2.53;52.42;100884.85;117240;1185;21905;-60
2022/01/20 02:51:01;;;;;;;21.20;10.00;;;;;;;-2.53;52.40;100880.59;117336;1185;21914;-50
2022/01/20 02:53:30;;;;;;;18.50;8.50;;;;;;;-2.53;52.40;100876.11;117032;1178;21858;-60
2022/01/20 02:55:58;;;;;;;15.90;7.70;;;;;;;-2.53;52.48;100869.06;117059;1186;22006;-60
2022/01/20 02:58:26;;;;;;;14.90;8.00;;;;;;;-2.53;52.33;100867.89;117131;1181;22427;-52
2022/01/20 03:00:55;;;;;;;13.60;7.00;;;;;;;-2.55;52.52;100862.08;117317;1183;24194;-50
2022/01/20 03:03:23;;;;;;;14.90;7.60;;;;;;;-2.57;52.52;100855.13;117327;1185;24251;-59
2022/01/20 03:05:52;;;;;;;16.40;8.20;;;;;;;-2.57;52.54;100850.66;117284;1181;22070;-60
2022/01/20 03:08:20;;;;;;;14.70;7.60;;;;;;;-2.56;52.51;100846.06;117268;1184;22953;-59
2022/01/20 03:10:48;;;;;;;16.70;7.60;;;;;;;-2.52;52.60;100848.33;117317;1180;23629;-60
2022/01/20 03:13:16;;;;;;;15.00;7.30;;;;;;;-2.47;52.63;100843.77;117256;1181;21908;-60
2022/01/20 03:15:44;;;;;;;16.10;7.00;;;;;;;-2.43;52.54;100834.29;117274;1184;21908;-50
2022/01/20 03:18:12;;;;;;;13.00;6.70;;;;;;;-2.40;52.64;100826.00;117300;1184;21931;-59
2022/01/20 03:20:41;;;;;;;12.70;6.60;;;;;;;-2.36;52.61;100821.55;117105;1183;21915;-60
2022/01/20 03:23:09;;;;;;;12.00;6.10;;;;;;;-2.30;52.70;100821.86;117078;1178;24159;-51
2022/01/20 03:25:38;;;;;;;13.60;6.90;;;;;;;-2.27;52.66;100814.13;117358;1185;23474;-61
2022/01/20 03:28:06;;;;;;;10.80;6.40;;;;;;;-2.27;52.79;100808.59;117354;1184;21895;-60
2022/01/20 03:30:34;;;;;;;13.60;7.10;;;;;;;-2.25;52.72;100806.63;117122;1184;23529;-61
2022/01/20 03:33:02;;;;;;;11.80;6.30;;;;;;;-2.22;52.90;100806.58;117226;1181;22945;-49
2022/01/20 03:35:31;;;;;;;17.80;6.70;;;;;;;-2.22;52.86;100800.73;117247;1182;23462;-50
2022/01/20 03:38:00;;;;;;;14.80;6.60;;;;;;;-2.22;52.82;100795.90;117287;1186;21876;-60
2022/01/20 03:40:28;;;;;;;22.10;10.00;;;;;;;-2.22;52.81;100793.84;117152;1184;23451;-60
2022/01/20 03:42:56;;;;;;;19.10;7.70;;;;;;;-2.24;52.69;100792.05;117007;1187;22631;-60
2022/01/20 03:45:27;;;;;;;13.30;6.60;;;;;;;-2.25;52.84;100790.45;117340;1183;23529;-58
2022/01/20 03:48:02;;;;;;;14.60;6.70;;;;;;;-2.22;52.98;100786.30;117270;1185;23599;-57
2022/01/20 03:53:18;;;;;;;12.90;6.50;;;;;;;-2.08;53.12;100790.02;117054;1184;23479;-52
2022/01/20 03:55:46;;;;;;;13.90;7.00;;;;;;;-2.02;53.03;100787.55;117068;1187;22893;-60
2022/01/20 03:58:15;;;;;;;12.40;6.60;;;;;;;-1.95;53.06;100783.02;117260;1179;24148;-49
2022/01/20 04:00:43;;;;;;;16.10;7.20;;;;;;;-1.89;53.15;100782.77;117286;1184;23647;-60
2022/01/20 04:03:15;;;;;;;13.60;6.50;;;;;;;-1.83;53.09;100786.13;117137;1181;23520;-58
2022/01/20 04:05:56;;;;;;;15.00;7.20;;;;;;;-1.77;53.13;100785.02;117085;1186;22767;-51
2022/01/20 04:08:33;;;;;;;13.90;7.40;;;;;;;-1.72;53.20;100783.52;117215;1181;22932;-60
2022/01/20 04:11:06;;;;;;;16.60;7.10;;;;;;;-1.67;52.97;100779.27;117355;1182;23631;-54
2022/01/20 04:13:35;;;;;;;13.50;7.30;;;;;;;-1.65;52.85;100781.95;117293;1185;21878;-60
2022/01/20 04:16:14;;;;;;;13.00;6.70;;;;;;;-1.67;52.81;100779.63;117409;1185;22990;-60
2022/01/20 04:18:56;;;;;;;15.90;8.20;;;;;;;-1.69;52.94;100773.86;117243;1186;23528;-50
2022/01/20 04:21:27;;;;;;;11.50;6.60;;;;;;;-1.72;52.71;100771.30;117273;1183;21854;-59
2022/01/20 04:23:56;;;;;;;13.80;6.50;;;;;;;-1.71;52.88;100765.31;117343;1182;21863;-49
2022/01/20 04:26:24;;;;;;;10.80;6.40;;;;;;;-1.71;52.85;100763.43;117426;1180;23611;-50
2022/01/20 04:28:56;;;;;;;11.90;6.10;;;;;;;-1.68;52.91;100762.00;117263;1186;21858;-49
2022/01/20 04:31:29;;;;;;;17.30;6.30;;;;;;;-1.69;52.97;100755.09;117274;1185;23461;-62
2022/01/20 04:33:57;;;;;;;14.00;6.90;;;;;;;-1.68;52.96;100756.17;117281;1185;22613;-50
2022/01/20 04:36:26;;;;;;;14.40;6.60;;;;;;;-1.67;52.90;100751.39;117301;1185;22906;-50
2022/01/20 04:38:55;;;;;;;13.70;6.70;;;;;;;-1.66;52.82;100751.41;117296;1185;22943;-58
2022/01/20 04:41:24;;;;;;;13.40;6.70;;;;;;;-1.67;52.76;100749.17;117300;1181;21945;-50
2022/01/20 04:43:53;;;;;;;13.40;6.20;;;;;;;-1.67;52.75;100746.40;117285;1185;21948;-60
2022/01/20 04:57:21;;;;;;;13.20;6.40;;;;;;;-1.62;52.98;100727.83;117333;1182;21893;-51
2022/01/20 04:59:51;;;;;;;13.00;7.00;;;;;;;-1.61;52.89;100729.95;117233;1184;24173;-60
2022/01/20 05:02:20;;;;;;;12.70;6.10;;;;;;;-1.62;53.00;100733.73;117259;1185;23453;-60
2022/01/20 05:04:48;;;;;;;12.50;6.20;;;;;;;-1.62;52.94;100730.42;117266;1184;24156;-51
2022/01/20 05:07:23;;;;;;;12.80;7.10;;;;;;;-1.62;52.99;100723.40;117356;1182;23467;-51
2022/01/20 05:09:54;;;;;;;12.30;6.10;;;;;;;-1.64;52.72;100724.18;117239;1185;21867;-50
2022/01/20 05:12:29;;;;;;;11.80;6.40;;;;;;;-1.66;53.04;100724.58;117152;1182;23455;-60
2022/01/20 05:14:58;;;;;;;12.70;6.50;;;;;;;-1.69;52.94;100723.96;117150;1185;22319;-50
2022/01/20 05:17:26;;;;;;;11.40;6.10;;;;;;;-1.71;52.89;100724.39;117273;1182;24326;-50
2022/01/20 05:19:54;;;;;;;11.10;5.60;;;;;;;-1.73;53.10;100724.98;117166;1180;22929;-51
2022/01/20 05:22:22;;;;;;;13.20;6.70;;;;;;;-1.75;52.92;100724.20;117052;1186;22928;-51
2022/01/20 05:24:50;;;;;;;12.30;6.20;;;;;;;-1.79;52.93;100718.89;117181;1182;22941;-50
2022/01/20 05:27:18;;;;;;;14.30;6.20;;;;;;;-1.85;52.91;100715.67;117290;1185;23504;-50
2022/01/20 05:29:46;;;;;;;12.30;6.60;;;;;;;-1.95;52.68;100707.86;117325;1181;23664;-58
2022/01/20 05:32:14;;;;;;;11.00;6.60;;;;;;;-2.01;52.64;100707.60;117328;1186;22922;-61
2022/01/20 05:34:42;;;;;;;13.60;7.00;;;;;;;-2.05;52.80;100703.80;117333;1184;23472;-50
2022/01/20 05:37:11;;;;;;;14.50;7.60;;;;;;;-2.10;52.87;100705.17;117326;1184;21915;-60
2022/01/20 05:39:39;;;;;;;13.40;6.60;;;;;;;-2.12;52.77;100704.69;117264;1182;22946;-60
2022/01/20 05:42:08;;;;;;;16.10;6.80;;;;;;;-2.14;52.91;100707.23;117319;1185;22945;-60
2022/01/20 05:44:36;;;;;;;12.30;6.60;;;;;;;-2.16;52.82;100705.23;117312;1181;21846;-50
2022/01/20 05:47:10;;;;;;;12.00;6.50;;;;;;;-2.20;52.94;100700.05;117255;1185;21869;-50
2022/01/20 05:49:38;;;;;;;12.80;6.40;;;;;;;-2.21;53.03;100701.75;117320;1186;23692;-51
2022/01/20 05:52:06;;;;;;;12.90;6.90;;;;;;;-2.20;53.08;100702.44;117427;1182;21937;-50
2022/01/20 05:54:35;;;;;;;12.70;7.50;;;;;;;-2.20;53.08;100699.00;117332;1186;22865;-60
2022/01/20 05:57:04;;;;;;;12.90;7.00;;;;;;;-2.16;52.92;100695.07;117098;1184;23475;-50
2022/01/20 05:59:32;;;;;;;12.60;6.80;;;;;;;-2.14;53.01;100692.77;117292;1181;24179;-60
2022/01/20 06:02:09;;;;;;;13.90;6.30;;;;;;;-2.14;53.21;100696.90;117265;1184;24155;-58
2022/01/20 06:04:38;;;;;;;14.10;6.50;;;;;;;-2.12;53.05;100698.71;117290;1185;21840;-51
2022/01/20 06:07:06;;;;;;;16.60;6.90;;;;;;;-2.09;53.13;100698.30;117302;1183;24303;-60
2022/01/20 06:09:36;;;;;;;11.90;6.90;;;;;;;-2.06;53.18;100694.80;117164;1186;23479;-52
2022/01/20 06:12:05;;;;;;;15.90;8.10;;;;;;;-2.04;53.13;100695.43;117275;1186;24172;-51
2022/01/20 06:14:33;;;;;;;15.30;6.70;;;;;;;-2.01;53.16;100700.02;117317;1179;23585;-52
2022/01/20 06:17:02;;;;;;;12.10;6.90;;;;;;;-1.97;53.25;100699.87;117292;1186;22935;-52
2022/01/20 06:19:30;;;;;;;12.10;6.90;;;;;;;-1.91;53.30;100693.07;117327;1182;21862;-61
2022/01/20 06:21:58;;;;;;;13.00;7.10;;;;;;;-1.84;53.36;100689.75;117340;1185;24164;-62
2022/01/20 06:24:27;;;;;;;15.00;7.10;;;;;;;-1.76;53.37;100688.55;117267;1183;23475;-63
2022/01/20 06:26:55;;;;;;;15.00;7.50;;;;;;;-1.68;53.60;100680.80;117301;1185;23462;-63
2022/01/20 06:29:23;;;;;;;13.30;7.70;;;;;;;-1.59;53.49;100676.54;117241;1186;21889;-63
2022/01/20 06:31:51;;;;;;;15.80;7.80;;;;;;;-1.48;53.55;100665.47;117177;1182;23484;-52
2022/01/20 06:34:20;;;;;;;16.60;7.30;;;;;;;-1.38;53.53;100659.31;117081;1181;23478;-52
2022/01/20 06:36:48;;;;;;;17.30;7.80;;;;;;;-1.27;53.47;100659.55;117276;1179;22648;-63
2022/01/20 06:39:16;;;;;;;14.70;7.90;;;;;;;-1.18;53.70;100652.19;117047;1188;21861;-52
2022/01/20 06:41:48;;;;;;;14.80;8.30;;;;;;;-1.07;53.67;100653.11;117233;1185;23554;-50
2022/01/20 06:44:17;;;;;;;15.40;7.60;;;;;;;-0.96;53.66;100653.02;117215;1178;21859;-64
2022/01/20 06:46:45;;;;;;;15.60;7.60;;;;;;;-0.86;53.66;100653.59;117207;1186;22098;-63
2022/01/20 06:49:15;;;;;;;14.50;8.00;;;;;;;-0.74;53.88;100658.17;117326;1178;21859;-63
2022/01/20 06:51:44;;;;;;;14.50;7.50;;;;;;;-0.63;53.93;100663.41;117057;1187;24181;-61
2022/01/20 06:54:13;;;;;;;15.90;8.40;;;;;;;-0.56;53.65;100659.73;116876;1187;23016;-62
2022/01/20 06:56:41;;;;;;;14.30;7.90;;;;;;;-0.44;53.62;100659.48;117115;1178;21866;-62
2022/01/20 06:59:14;;;;;;;15.30;8.10;;;;;;;-0.33;53.72;100655.73;117307;1177;23479;-61
2022/01/20 07:01:43;;;;;;;13.10;8.30;;;;;;;-0.22;54.02;100646.99;116975;1187;23654;-62
2022/01/20 07:04:13;;;;;;;15.80;7.90;;;;;;;-0.09;53.92;100641.25;117286;1181;23449;-53
2022/01/20 07:06:42;;;;;;;12.80;6.50;;;;;;;0.04;53.94;100637.52;117298;1185;21922;-62
2022/01/20 07:09:11;;;;;;;13.50;8.20;;;;;;;0.16;54.07;100624.16;117305;1185;21846;-61
2022/01/20 07:11:39;;;;;;;16.80;8.80;;;;;;;0.29;54.07;100614.36;117306;1183;22927;-62
2022/01/20 07:14:08;;;;;;;14.00;8.10;;;;;;;0.39;54.12;100607.13;117250;1181;24155;-62
2022/01/20 07:16:36;;;;;;;15.10;8.50;;;;;;;0.52;54.02;100599.77;117239;1185;21866;-63
2022/01/20 07:19:04;;;;;;;12.10;7.30;;;;;;;0.64;53.95;100599.27;117288;1185;23518;-54
2022/01/20 07:21:33;;;;;;;13.60;7.50;;;;;;;0.75;53.98;100592.02;117245;1186;23576;-63
2022/01/20 07:24:10;;;;;;;16.30;8.40;;;;;;;0.88;54.31;100590.16;117258;1186;23553;-63
2022/01/20 07:26:39;;;;;;;12.90;7.80;;;;;;;1.00;53.94;100590.36;117316;1184;21997;-62
2022/01/20 07:29:08;;;;;;;14.70;8.70;;;;;;;1.41;53.74;100584.55;117301;1178;21866;-54
2022/01/20 07:31:36;;;;;;;14.50;8.20;;;;;;;3.80;49.87;100575.41;117272;1188;22910;-55
2022/01/20 07:34:05;;;;;;;16.00;8.20;;;;;;;4.69;48.51;100574.83;117288;1184;23574;-62
2022/01/20 07:36:33;;;;;;;15.40;8.00;;;;;;;4.98;48.12;100584.82;117245;1182;22651;-55
2022/01/20 07:39:02;;;;;;;14.80;8.20;;;;;;;3.10;50.99;100605.70;117255;1184;23460;-60
2022/01/20 07:41:31;;;;;;;13.30;7.50;;;;;;;2.16;52.86;100604.80;117332;1183;23464;-61
2022/01/20 07:43:59;;;;;;;12.70;7.60;;;;;;;1.98;53.38;100601.40;117330;1185;21878;-55
2022/01/20 07:46:28;;;;;;;17.10;8.80;;;;;;;1.94;53.73;100594.02;117341;1182;23596;-62
2022/01/20 07:48:56;;;;;;;13.70;8.10;;;;;;;1.97;53.77;100591.68;117296;1185;21996;-54
2022/01/20 07:51:24;;;;;;;12.40;6.60;;;;;;;2.03;53.81;100586.98;117251;1184;21867;-62
2022/01/20 07:53:52;;;;;;;14.90;7.90;;;;;;;2.11;54.03;100583.54;117273;1185;21859;-54
2022/01/20 07:56:20;;;;;;;15.70;8.70;;;;;;;2.19;54.01;100576.48;117293;1186;22923;-61
2022/01/20 07:58:49;;;;;;;14.80;8.00;;;;;;;2.28;54.08;100574.44;117243;1184;23452;-61
2022/01/20 08:01:17;;;;;;;12.50;7.00;;;;;;;2.38;54.30;100560.48;117313;1185;21859;-61
2022/01/20 08:03:46;;;;;;;13.70;8.10;;;;;;;2.51;54.43;100558.89;117311;1184;21858;-54
2022/01/20 08:06:14;;;;;;;13.40;7.60;;;;;;;2.63;54.33;100556.77;117309;1182;22925;-54
2022/01/20 08:08:42;;;;;;;10.80;6.90;;;;;;;2.75;54.40;100554.06;117250;1186;23459;-61
2022/01/20 08:11:10;;;;;;;11.10;6.60;;;;;;;2.87;54.33;100551.55;117283;1185;23576;-61
2022/01/20 08:13:40;;;;;;;11.00;6.40;;;;;;;2.98;54.26;100551.96;117274;1186;23553;-54
2022/01/20 08:16:09;;;;;;;13.10;7.60;;;;;;;3.07;54.25;100549.20;116977;1184;23546;-61
2022/01/20 08:18:38;;;;;;;12.00;6.70;;;;;;;3.17;54.28;100540.92;117298;1183;23478;-61
2022/01/20 08:21:06;;;;;;;13.40;6.60;;;;;;;3.30;54.25;100538.92;117298;1184;23664;-54
2022/01/20 08:23:34;;;;;;;10.30;6.30;;;;;;;3.43;54.08;100531.71;117232;1185;21866;-61
2022/01/20 08:26:03;;;;;;;10.70;6.40;;;;;;;3.57;54.27;100524.70;117301;1184;23473;-56
2022/01/20 08:28:31;;;;;;;13.60;7.30;;;;;;;3.71;54.32;100517.13;117281;1185;23085;-61
2022/01/20 08:31:00;;;;;;;10.10;6.00;;;;;;;3.87;54.42;100517.05;117103;1188;23484;-61
2022/01/20 08:33:28;;;;;;;10.90;5.90;;;;;;;4.02;54.53;100515.06;117326;1183;23599;-56
2022/01/20 08:36:07;;;;;;;10.90;6.10;;;;;;;4.18;54.32;100518.96;117379;1185;24270;-54
2022/01/20 08:38:39;;;;;;;11.10;5.70;;;;;;;4.30;54.15;100516.19;117248;1185;21865;-62
2022/01/20 08:41:08;;;;;;;11.30;6.00;;;;;;;4.42;54.13;100508.91;117244;1182;21859;-56
2022/01/20 08:43:38;;;;;;;11.60;6.70;;;;;;;4.56;54.25;100503.20;117253;1181;21858;-56
2022/01/20 08:46:13;;;;;;;10.90;6.10;;;;;;;4.68;54.11;100502.84;117264;1184;22932;-56
2022/01/20 08:48:42;;;;;;;11.50;6.80;;;;;;;4.78;54.25;100501.08;117114;1182;22669;-56
2022/01/20 08:51:10;;;;;;;12.70;6.80;;;;;;;4.88;54.17;100500.15;117191;1182;23486;-62
2022/01/20 08:53:40;;;;;;;10.50;6.80;;;;;;;4.98;54.07;100494.02;117257;1186;23479;-56
2022/01/20 08:56:09;;;;;;;9.90;6.40;;;;;;;5.04;53.78;100483.33;116999;1187;22641;-56
2022/01/20 08:58:37;;;;;;;13.10;7.00;;;;;;;5.14;54.09;100477.52;117317;1183;22432;-61
2022/01/20 09:01:05;;;;;;;11.70;7.00;;;;;;;5.23;53.83;100475.20;117325;1183;21853;-56
2022/01/20 09:03:35;;;;;;;13.10;7.60;;;;;;;5.31;53.79;100470.05;117143;1182;21903;-61
2022/01/20 09:06:06;;;;;;;14.50;7.50;;;;;;;5.33;53.63;100468.48;117182;1185;21849;-57
2022/01/20 09:08:35;;;;;;;13.40;7.30;;;;;;;5.31;53.69;100470.39;117072;1182;22921;-58
2022/01/20 09:11:06;;;;;;;14.40;8.90;;;;;;;5.29;53.65;100469.52;117069;1188;21859;-55
2022/01/20 09:16:22;;;;;;;14.90;8.00;;;;;;;5.31;53.37;100466.05;117306;1186;21898;-61
2022/01/20 09:18:50;;;;;;;16.20;9.60;;;;;;;5.36;53.53;100463.48;117252;1186;24296;-55
2022/01/20 09:21:22;;;;;;;12.10;7.80;;;;;;;5.43;53.56;100462.34;117246;1186;22530;-61
2022/01/20 09:23:50;;;;;;;26.60;13.40;;;;;;;5.45;53.12;100455.05;117276;1182;21924;-55
2022/01/20 09:26:19;;;;;;;32.50;15.50;;;;;;;5.44;53.41;100442.34;117327;1186;21857;-61
2022/01/20 09:28:47;;;;;;;15.60;9.50;;;;;;;5.45;53.23;100429.48;117237;1182;22008;-55
2022/01/20 09:31:21;;;;;;;15.80;9.30;;;;;;;5.49;53.33;100425.52;117381;1182;23570;-61
2022/01/20 09:33:50;;;;;;;22.00;11.10;;;;;;;5.51;53.39;100417.69;116944;1187;23001;-61
2022/01/20 09:36:19;;;;;;;27.70;12.50;;;;;;;5.58;53.19;100413.40;117216;1185;21885;-55
2022/01/20 09:38:48;;;;;;;16.30;9.20;;;;;;;5.62;53.48;100408.91;116975;1190;21858;-55
2022/01/20 09:41:17;;;;;;;17.00;9.20;;;;;;;5.67;53.46;100395.90;117261;1186;21866;-55
2022/01/20 09:43:45;;;;;;;16.50;8.40;;;;;;;5.76;53.70;100391.09;117064;1185;23560;-55
2022/01/20 09:46:14;;;;;;;21.30;9.70;;;;;;;5.85;53.59;100381.75;117305;1179;23544;-55
2022/01/20 09:48:42;;;;;;;15.90;9.40;;;;;;;5.92;53.28;100377.45;117373;1185;21861;-61
2022/01/20 09:51:13;;;;;;;17.20;9.40;;;;;;;6.00;53.63;100376.46;117275;1186;22168;-55
2022/01/20 09:53:42;;;;;;;24.00;12.90;;;;;;;6.07;53.54;100367.98;117051;1185;21857;-62
2022/01/20 09:56:12;;;;;;;15.80;9.40;;;;;;;6.11;53.44;100359.83;116958;1185;23579;-62
2022/01/20 09:58:43;;;;;;;18.40;11.20;;;;;;;6.13;53.33;100353.21;117254;1185;22938;-61
2022/01/20 10:01:12;;;;;;;16.80;9.50;;;;;;;6.15;53.33;100341.55;117371;1185;21874;-56
2022/01/20 10:03:46;;;;;;;22.20;12.80;;;;;;;6.21;53.24;100334.10;117274;1176;23541;-56
2022/01/20 10:06:14;;;;;;;28.00;14.50;;;;;;;6.27;53.15;100330.64;117072;1178;23488;-62
2022/01/20 10:08:43;;;;;;;24.70;13.40;;;;;;;6.32;53.32;100321.77;116936;1186;21938;-62
2022/01/20 10:11:35;;;;;;;15.50;9.40;;;;;;;6.38;53.02;100315.35;117281;1184;23579;-56
2022/01/20 10:14:07;;;;;;;40.10;19.90;;;;;;;6.44;53.28;100312.92;117052;1185;23551;-56
2022/01/20 10:16:36;;;;;;;31.10;15.30;;;;;;;6.51;53.21;100308.07;117243;1182;21859;-62
2022/01/20 10:19:05;;;;;;;21.20;11.10;;;;;;;6.60;53.19;100301.48;117233;1183;21851;-62
2022/01/20 10:21:36;;;;;;;22.10;10.20;;;;;;;6.72;53.31;100296.79;117251;1186;21858;-56
2022/01/20 10:24:08;;;;;;;47.80;22.40;;;;;;;6.80;53.30;100304.48;117128;1185;21852;-56
2022/01/20 10:26:39;;;;;;;42.80;20.60;;;;;;;6.82;53.05;100295.59;117134;1186;23570;-56
2022/01/20 10:29:12;;;;;;;15.30;8.10;;;;;;;6.85;53.20;100288.98;117272;1185;21926;-62
2022/01/20 10:31:46;;;;;;;17.40;10.30;;;;;;;6.92;52.90;100288.63;118686;1176;21862;-56
2022/01/20 10:34:31;;;;;;;17.50;9.00;;;;;;;6.97;53.05;100284.29;117168;1185;23475;-62
2022/01/20 10:37:14;;;;;;;25.60;13.70;;;;;;;7.04;53.05;100273.29;117105;1186;23505;-61
2022/01/20 10:39:46;;;;;;;23.20;12.40;;;;;;;7.09;53.02;100272.58;117250;1181;22925;-62
2022/01/20 10:42:17;;;;;;;19.70;10.00;;;;;;;7.14;53.14;100265.26;117109;1185;23579;-56
2022/01/20 10:44:53;;;;;;;22.20;12.70;;;;;;;7.16;53.21;100257.42;117285;1182;23549;-62
2022/01/20 10:47:24;;;;;;;15.00;8.70;;;;;;;7.20;53.26;100256.72;117080;1186;21874;-62
2022/01/20 10:49:52;;;;;;;14.70;9.60;;;;;;;7.23;53.03;100253.05;117121;1186;23455;-59
2022/01/20 10:52:22;;;;;;;15.00;8.90;;;;;;;7.27;53.15;100249.73;117456;1178;21873;-56
2022/01/20 10:54:52;;;;;;;17.00;9.00;;;;;;;7.29;52.84;100248.49;117130;1186;21861;-56
2022/01/20 10:57:30;;;;;;;13.70;7.90;;;;;;;7.30;52.76;100239.24;117100;1186;21872;-56
2022/01/20 11:00:06;;;;;;;16.30;9.00;;;;;;;7.36;52.53;100241.34;117161;1184;22632;-56
2022/01/20 11:02:34;;;;;;;12.60;7.30;;;;;;;7.44;53.00;100242.55;117109;1182;21913;-62
2022/01/20 11:05:04;;;;;;;13.50;7.60;;;;;;;7.48;52.61;100245.16;117137;1186;23449;-56
2022/01/20 11:07:32;;;;;;;36.40;7.80;;;;;;;7.47;52.42;100235.92;117294;1186;21944;-55
2022/01/20 11:10:05;;;;;;;12.60;7.80;;;;;;;7.49;52.39;100221.41;117232;1185;23456;-56
2022/01/20 11:12:36;;;;;;;16.20;8.40;;;;;;;7.55;52.48;100219.66;117209;1182;23660;-63
2022/01/20 11:15:08;;;;;;;15.00;8.70;;;;;;;7.60;52.39;100208.29;117224;1181;22927;-56
2022/01/20 11:17:39;;;;;;;14.10;8.10;;;;;;;7.61;52.42;100204.97;117159;1186;22334;-61
2022/01/20 11:20:10;;;;;;;39.30;20.10;;;;;;;7.68;52.59;100199.20;117134;1186;23359;-56
2022/01/20 11:22:57;;;;;;;23.30;11.60;;;;;;;7.75;52.64;100190.61;117141;1186;21867;-56
2022/01/20 11:25:27;;;;;;;18.50;9.60;;;;;;;7.87;52.68;100185.33;117224;1186;22421;-56
2022/01/20 11:28:15;;;;;;;16.20;8.00;;;;;;;7.97;52.71;100173.05;117165;1186;23483;-62
2022/01/20 11:31:03;;;;;;;19.90;11.50;;;;;;;8.03;52.55;100171.27;117198;1185;23455;-56
2022/01/20 11:33:43;;;;;;;15.80;8.60;;;;;;;8.03;52.39;100163.05;117088;1186;22173;-56
2022/01/20 11:36:29;;;;;;;16.20;8.80;;;;;;;8.08;52.48;100167.39;117278;1182;23465;-62
2022/01/20 11:39:18;;;;;;;11.40;7.10;;;;;;;8.15;52.44;100172.08;117112;1182;23495;-62
2022/01/20 11:41:49;;;;;;;65.10;41.80;;;;;;;8.17;52.58;100169.45;117148;1186;23500;-56
2022/01/20 11:44:24;;;;;;;52.60;43.70;;;;;;;8.20;52.56;100170.30;117200;1183;21859;-56
2022/01/20 11:46:53;;;;;;;36.60;21.70;;;;;;;8.20;52.49;100161.02;117022;1187;21954;-57
2022/01/20 11:49:21;;;;;;;13.70;8.80;;;;;;;8.19;52.25;100155.10;117057;1185;22948;-56
2022/01/20 11:51:57;;;;;;;13.90;7.30;;;;;;;8.22;52.34;100148.78;117065;1186;21862;-57
2022/01/20 11:54:33;;;;;;;22.50;13.20;;;;;;;8.22;52.23;100143.02;117040;1187;21852;-62
2022/01/20 11:57:12;;;;;;;13.60;8.50;;;;;;;8.24;52.46;100141.62;116997;1187;21857;-61
2022/01/20 11:59:49;;;;;;;14.20;8.60;;;;;;;8.29;52.51;100136.15;117655;1187;21851;-62
2022/01/20 12:02:36;;;;;;;27.30;13.60;;;;;;;8.24;51.80;100133.92;117251;1185;23566;-57
2022/01/20 12:05:27;;;;;;;38.60;17.00;;;;;;;8.13;51.81;100131.54;117037;1183;23477;-62
2022/01/20 12:08:10;;;;;;;78.60;29.40;;;;;;;8.15;52.18;100132.92;116997;1186;21868;-56
2022/01/20 12:10:39;;;;;;;26.00;12.90;;;;;;;8.19;52.26;100130.27;117030;1181;24156;-62
2022/01/20 12:13:09;;;;;;;19.10;10.50;;;;;;;8.20;52.37;100116.98;117028;1187;24168;-56
2022/01/20 12:15:50;;;;;;;75.60;30.20;;;;;;;8.22;52.23;100113.30;117830;1186;23532;-62
2022/01/20 12:18:19;;;;;;;58.70;26.10;;;;;;;8.22;52.46;100113.11;117192;1186;23478;-62
2022/01/20 12:20:47;;;;;;;28.40;13.60;;;;;;;8.23;52.26;100104.20;117155;1187;21903;-57
2022/01/20 12:23:17;;;;;;;30.20;15.70;;;;;;;8.22;52.18;100097.91;117199;1187;24162;-57
2022/01/20 12:25:46;;;;;;;21.20;10.40;;;;;;;8.20;52.16;100101.08;117100;1185;21925;-62
2022/01/20 12:28:16;;;;;;;20.20;11.70;;;;;;;8.17;52.16;100095.49;117041;1182;23576;-56
2022/01/20 12:30:49;;;;;;;21.90;12.70;;;;;;;8.19;52.37;100098.11;117125;1183;21919;-56